sensor_id;sensor_type;location;lat;lon;timestamp;P1;durP1;ratioP1;P2;durP2;ratioP2
58874;SDS011;44652;49.040;12.126;2023-03-15T06:42:12;12.20;;;5.10;;
58874;SDS011;44652;49.040;12.126;2023-03-15T06:44:39;11.65;;;5.00;;
58874;SDS011;44652;49.040;12.126;2023-03-15T06:47:07;12.35;;;5.18;;
58874;SDS011;44652;49.040;12.126;2023-03-15T06:49:35;15.50;;;5.35;;
58874;SDS011;44652;49.040;12.126;2023-03-15T06:52:03;15.20;;;5.10;;
58874;SDS011;44652;49.040;12.126;2023-03-15T06:54:30;12.15;;;6.53;;
58874;SDS011;44652;49.040;12.126;2023-03-15T06:56:57;18.05;;;5.18;;
58874;SDS011;44652;49.040;12.126;2023-03-15T06:59:25;13.77;;;5.40;;
58874;SDS011;44652;49.040;12.126;2023-03-15T07:01:51;14.23;;;6.10;;
58874;SDS011;44652;49.040;12.126;2023-03-15T07:04:18;18.92;;;7.25;;
58874;SDS011;44652;49.040;12.126;2023-03-15T07:06:44;20.10;;;6.93;;
58874;SDS011;44652;49.040;12.126;2023-03-15T07:09:11;14.57;;;5.97;;
58874;SDS011;44652;49.040;12.126;2023-03-15T07:11:37;17.13;;;7.28;;
58874;SDS011;44652;49.040;12.126;2023-03-15T07:14:04;13.38;;;6.20;;
58874;SDS011;44652;49.040;12.126;2023-03-15T07:16:32;11.07;;;5.10;;
58874;SDS011;44652;49.040;12.126;2023-03-15T07:18:58;14.15;;;4.95;;
58874;SDS011;44652;49.040;12.126;2023-03-15T07:21:25;13.02;;;5.03;;
58874;SDS011;44652;49.040;12.126;2023-03-15T07:23:52;11.73;;;5.43;;
58874;SDS011;44652;49.040;12.126;2023-03-15T07:26:18;14.02;;;4.75;;
58874;SDS011;44652;49.040;12.126;2023-03-15T07:28:45;14.15;;;4.88;;
58874;SDS011;44652;49.040;12.126;2023-03-15T07:31:11;11.80;;;5.07;;
58874;SDS011;44652;49.040;12.126;2023-03-15T07:33:38;11.80;;;4.85;;
58874;SDS011;44652;49.040;12.126;2023-03-15T07:36:05;16.13;;;5.00;;
58874;SDS011;44652;49.040;12.126;2023-03-15T07:38:32;18.70;;;5.90;;
58874;SDS011;44652;49.040;12.126;2023-03-15T07:41:03;16.40;;;5.88;;
58874;SDS011;44652;49.040;12.126;2023-03-15T07:43:30;12.27;;;5.57;;
58874;SDS011;44652;49.040;12.126;2023-03-15T07:46:12;15.88;;;5.80;;
58874;SDS011;44652;49.040;12.126;2023-03-15T07:48:39;12.93;;;4.82;;
58874;SDS011;44652;49.040;12.126;2023-03-15T07:51:06;12.73;;;6.15;;
58874;SDS011;44652;49.040;12.126;2023-03-15T07:53:32;13.80;;;5.55;;
58874;SDS011;44652;49.040;12.126;2023-03-15T07:55:59;17.98;;;6.47;;
58874;SDS011;44652;49.040;12.126;2023-03-15T07:58:26;14.02;;;6.70;;
58874;SDS011;44652;49.040;12.126;2023-03-15T08:00:53;20.02;;;6.95;;
58874;SDS011;44652;49.040;12.126;2023-03-15T08:03:20;14.60;;;6.05;;
58874;SDS011;44652;49.040;12.126;2023-03-15T08:05:47;14.88;;;5.97;;
58874;SDS011;44652;49.040;12.126;2023-03-15T08:08:13;14.98;;;6.82;;
58874;SDS011;44652;49.040;12.126;2023-03-15T08:10:40;12.57;;;7.20;;
58874;SDS011;44652;49.040;12.126;2023-03-15T08:13:08;13.23;;;7.05;;
58874;SDS011;44652;49.040;12.126;2023-03-15T08:15:35;17.92;;;6.35;;
58874;SDS011;44652;49.040;12.126;2023-03-15T08:18:01;12.13;;;6.05;;
58874;SDS011;44652;49.040;12.126;2023-03-15T08:20:31;17.00;;;6.50;;
58874;SDS011;44652;49.040;12.126;2023-03-15T08:22:59;17.13;;;6.60;;
58874;SDS011;44652;49.040;12.126;2023-03-15T08:25:27;15.10;;;6.82;;
58874;SDS011;44652;49.040;12.126;2023-03-15T08:27:53;14.82;;;6.30;;
58874;SDS011;44652;49.040;12.126;2023-03-15T08:30:20;11.90;;;6.32;;
58874;SDS011;44652;49.040;12.126;2023-03-15T08:32:47;13.88;;;6.38;;
58874;SDS011;44652;49.040;12.126;2023-03-15T08:35:15;17.20;;;6.88;;
58874;SDS011;44652;49.040;12.126;2023-03-15T08:37:42;13.40;;;6.80;;
58874;SDS011;44652;49.040;12.126;2023-03-15T08:40:13;20.17;;;7.55;;
58874;SDS011;44652;49.040;12.126;2023-03-15T08:42:40;19.27;;;7.38;;
58874;SDS011;44652;49.040;12.126;2023-03-15T08:45:07;16.20;;;7.47;;
58874;SDS011;44652;49.040;12.126;2023-03-15T08:47:33;12.75;;;6.38;;
58874;SDS011;44652;49.040;12.126;2023-03-15T08:50:03;14.40;;;6.75;;
58874;SDS011;44652;49.040;12.126;2023-03-15T08:52:30;14.77;;;7.10;;
58874;SDS011;44652;49.040;12.126;2023-03-15T08:54:57;15.95;;;6.50;;
58874;SDS011;44652;49.040;12.126;2023-03-15T08:57:24;11.77;;;6.40;;
58874;SDS011;44652;49.040;12.126;2023-03-15T08:59:54;13.77;;;6.38;;
58874;SDS011;44652;49.040;12.126;2023-03-15T09:02:21;11.65;;;6.43;;
58874;SDS011;44652;49.040;12.126;2023-03-15T09:04:48;13.27;;;5.57;;
58874;SDS011;44652;49.040;12.126;2023-03-15T09:07:18;14.57;;;5.45;;
58874;SDS011;44652;49.040;12.126;2023-03-15T09:09:44;23.10;;;5.93;;
58874;SDS011;44652;49.040;12.126;2023-03-15T09:14:39;12.35;;;4.95;;
58874;SDS011;44652;49.040;12.126;2023-03-15T09:17:06;14.75;;;6.07;;
58874;SDS011;44652;49.040;12.126;2023-03-15T09:19:33;12.63;;;5.47;;
58874;SDS011;44652;49.040;12.126;2023-03-15T09:21:59;13.95;;;5.68;;
58874;SDS011;44652;49.040;12.126;2023-03-15T09:24:42;24.38;;;6.03;;
58874;SDS011;44652;49.040;12.126;2023-03-15T09:27:08;11.05;;;4.35;;
58874;SDS011;44652;49.040;12.126;2023-03-15T09:29:37;11.15;;;4.53;;
58874;SDS011;44652;49.040;12.126;2023-03-15T09:32:03;9.48;;;3.92;;
58874;SDS011;44652;49.040;12.126;2023-03-15T09:34:30;11.85;;;3.85;;
58874;SDS011;44652;49.040;12.126;2023-03-15T09:37:06;9.80;;;3.25;;
58874;SDS011;44652;49.040;12.126;2023-03-15T09:39:33;12.73;;;3.28;;
58874;SDS011;44652;49.040;12.126;2023-03-15T09:42:00;9.40;;;3.20;;
58874;SDS011;44652;49.040;12.126;2023-03-15T09:47:12;11.25;;;3.80;;
58874;SDS011;44652;49.040;12.126;2023-03-15T09:49:50;8.15;;;2.50;;
58874;SDS011;44652;49.040;12.126;2023-03-15T09:54:55;6.90;;;2.03;;
58874;SDS011;44652;49.040;12.126;2023-03-15T09:57:28;5.65;;;1.83;;
58874;SDS011;44652;49.040;12.126;2023-03-15T09:59:55;7.22;;;2.22;;
58874;SDS011;44652;49.040;12.126;2023-03-15T10:02:24;7.60;;;2.60;;
58874;SDS011;44652;49.040;12.126;2023-03-15T10:05:11;6.20;;;1.80;;
58874;SDS011;44652;49.040;12.126;2023-03-15T10:07:41;5.95;;;2.10;;
58874;SDS011;44652;49.040;12.126;2023-03-15T10:10:18;9.15;;;2.70;;
58874;SDS011;44652;49.040;12.126;2023-03-15T10:12:51;11.70;;;2.63;;
58874;SDS011;44652;49.040;12.126;2023-03-15T10:20:26;5.63;;;1.80;;
58874;SDS011;44652;49.040;12.126;2023-03-15T10:23:04;6.22;;;2.30;;
58874;SDS011;44652;49.040;12.126;2023-03-15T10:25:33;9.93;;;2.65;;
58874;SDS011;44652;49.040;12.126;2023-03-15T10:30:33;6.25;;;1.60;;
58874;SDS011;44652;49.040;12.126;2023-03-15T10:35:45;7.30;;;1.88;;
58874;SDS011;44652;49.040;12.126;2023-03-15T10:38:13;6.25;;;1.70;;
58874;SDS011;44652;49.040;12.126;2023-03-15T10:40:44;11.68;;;2.13;;
58874;SDS011;44652;49.040;12.126;2023-03-15T10:45:56;9.85;;;1.80;;
58874;SDS011;44652;49.040;12.126;2023-03-15T10:48:24;7.75;;;2.10;;
58874;SDS011;44652;49.040;12.126;2023-03-15T10:50:51;6.18;;;1.90;;
58874;SDS011;44652;49.040;12.126;2023-03-15T10:53:18;8.25;;;2.00;;
58874;SDS011;44652;49.040;12.126;2023-03-15T10:55:56;8.60;;;2.00;;
58874;SDS011;44652;49.040;12.126;2023-03-15T10:58:28;7.50;;;2.13;;
58874;SDS011;44652;49.040;12.126;2023-03-15T11:01:05;7.35;;;2.22;;
58874;SDS011;44652;49.040;12.126;2023-03-15T11:03:33;4.60;;;1.63;;
58874;SDS011;44652;49.040;12.126;2023-03-15T11:06:00;8.75;;;1.63;;
58874;SDS011;44652;49.040;12.126;2023-03-15T11:08:39;4.95;;;1.73;;
58874;SDS011;44652;49.040;12.126;2023-03-15T11:11:07;7.50;;;2.38;;
58874;SDS011;44652;49.040;12.126;2023-03-15T11:13:34;6.28;;;2.00;;
58874;SDS011;44652;49.040;12.126;2023-03-15T11:21:11;4.63;;;1.63;;
58874;SDS011;44652;49.040;12.126;2023-03-15T11:23:40;9.45;;;2.30;;
58874;SDS011;44652;49.040;12.126;2023-03-15T11:26:22;7.22;;;2.10;;
58874;SDS011;44652;49.040;12.126;2023-03-15T11:28:59;5.38;;;1.77;;
58874;SDS011;44652;49.040;12.126;2023-03-15T11:33:57;7.40;;;1.60;;
58874;SDS011;44652;49.040;12.126;2023-03-15T11:36:29;7.38;;;2.00;;
58874;SDS011;44652;49.040;12.126;2023-03-15T11:38:58;10.98;;;2.80;;
58874;SDS011;44652;49.040;12.126;2023-03-15T11:41:42;5.72;;;2.00;;
58874;SDS011;44652;49.040;12.126;2023-03-15T11:44:23;7.93;;;1.98;;
58874;SDS011;44652;49.040;12.126;2023-03-15T11:47:04;8.15;;;1.70;;
58874;SDS011;44652;49.040;12.126;2023-03-15T11:49:36;6.88;;;1.67;;
58874;SDS011;44652;49.040;12.126;2023-03-15T11:52:05;10.05;;;1.98;;
58874;SDS011;44652;49.040;12.126;2023-03-15T11:54:32;6.57;;;1.55;;
58874;SDS011;44652;49.040;12.126;2023-03-15T11:57:02;8.05;;;2.25;;
58874;SDS011;44652;49.040;12.126;2023-03-15T11:59:31;9.10;;;1.92;;
58874;SDS011;44652;49.040;12.126;2023-03-15T12:17:55;8.15;;;1.80;;
58874;SDS011;44652;49.040;12.126;2023-03-15T12:23:20;7.25;;;1.40;;
58874;SDS011;44652;49.040;12.126;2023-03-15T12:25:50;6.38;;;1.48;;
58874;SDS011;44652;49.040;12.126;2023-03-15T12:28:21;3.83;;;1.25;;
58874;SDS011;44652;49.040;12.126;2023-03-15T12:30:52;8.80;;;1.50;;
58874;SDS011;44652;49.040;12.126;2023-03-15T12:33:20;7.35;;;1.40;;
58874;SDS011;44652;49.040;12.126;2023-03-15T12:35:47;7.10;;;1.65;;
58874;SDS011;44652;49.040;12.126;2023-03-15T12:38:16;6.65;;;1.40;;
58874;SDS011;44652;49.040;12.126;2023-03-15T12:43:36;7.88;;;1.10;;
58874;SDS011;44652;49.040;12.126;2023-03-15T12:46:06;4.65;;;1.63;;
58874;SDS011;44652;49.040;12.126;2023-03-15T12:51:42;4.15;;;1.52;;
58874;SDS011;44652;49.040;12.126;2023-03-15T12:54:10;7.95;;;1.20;;
58874;SDS011;44652;49.040;12.126;2023-03-15T12:56:40;3.53;;;1.15;;
58874;SDS011;44652;49.040;12.126;2023-03-15T12:59:41;2.78;;;0.95;;
58874;SDS011;44652;49.040;12.126;2023-03-15T13:02:01;5.68;;;1.05;;
58874;SDS011;44652;49.040;12.126;2023-03-15T13:04:28;5.97;;;1.30;;
58874;SDS011;44652;49.040;12.126;2023-03-15T13:14:47;5.13;;;1.20;;
58874;SDS011;44652;49.040;12.126;2023-03-15T13:17:30;7.80;;;1.30;;
58874;SDS011;44652;49.040;12.126;2023-03-15T13:22:48;4.43;;;1.20;;
58874;SDS011;44652;49.040;12.126;2023-03-15T13:25:26;3.60;;;1.08;;
58874;SDS011;44652;49.040;12.126;2023-03-15T13:33:29;5.25;;;1.40;;
58874;SDS011;44652;49.040;12.126;2023-03-15T13:38:28;7.10;;;1.30;;
58874;SDS011;44652;49.040;12.126;2023-03-15T13:40:56;3.90;;;1.10;;
58874;SDS011;44652;49.040;12.126;2023-03-15T13:43:25;8.33;;;2.03;;
58874;SDS011;44652;49.040;12.126;2023-03-15T13:45:51;7.43;;;1.55;;
58874;SDS011;44652;49.040;12.126;2023-03-15T13:48:20;7.55;;;1.65;;
58874;SDS011;44652;49.040;12.126;2023-03-15T13:50:47;6.82;;;1.45;;
58874;SDS011;44652;49.040;12.126;2023-03-15T13:53:24;6.13;;;1.50;;
58874;SDS011;44652;49.040;12.126;2023-03-15T13:56:13;4.18;;;1.38;;
58874;SDS011;44652;49.040;12.126;2023-03-15T13:58:41;6.10;;;1.50;;
58874;SDS011;44652;49.040;12.126;2023-03-15T14:01:08;6.07;;;1.60;;
58874;SDS011;44652;49.040;12.126;2023-03-15T14:06:03;5.32;;;1.23;;
58874;SDS011;44652;49.040;12.126;2023-03-15T14:08:30;4.70;;;1.58;;
58874;SDS011;44652;49.040;12.126;2023-03-15T14:13:28;3.08;;;1.40;;
58874;SDS011;44652;49.040;12.126;2023-03-15T14:15:56;7.10;;;1.85;;
58874;SDS011;44652;49.040;12.126;2023-03-15T14:18:24;5.40;;;2.00;;
58874;SDS011;44652;49.040;12.126;2023-03-15T14:20:52;7.87;;;1.80;;
58874;SDS011;44652;49.040;12.126;2023-03-15T14:25:55;6.60;;;1.63;;
58874;SDS011;44652;49.040;12.126;2023-03-15T14:28:25;4.85;;;1.33;;
58874;SDS011;44652;49.040;12.126;2023-03-15T14:30:55;7.50;;;1.63;;
58874;SDS011;44652;49.040;12.126;2023-03-15T14:33:29;5.38;;;1.50;;
58874;SDS011;44652;49.040;12.126;2023-03-15T14:35:57;4.55;;;1.40;;
58874;SDS011;44652;49.040;12.126;2023-03-15T14:40:51;6.90;;;1.48;;
58874;SDS011;44652;49.040;12.126;2023-03-15T14:43:18;6.03;;;1.40;;
58874;SDS011;44652;49.040;12.126;2023-03-15T14:45:46;6.05;;;1.42;;
58874;SDS011;44652;49.040;12.126;2023-03-15T14:48:14;5.63;;;1.48;;
58874;SDS011;44652;49.040;12.126;2023-03-15T14:50:44;6.30;;;1.50;;
58874;SDS011;44652;49.040;12.126;2023-03-15T14:53:15;3.63;;;1.27;;
58874;SDS011;44652;49.040;12.126;2023-03-15T14:55:42;6.32;;;1.35;;
58874;SDS011;44652;49.040;12.126;2023-03-15T14:58:13;7.82;;;1.40;;
58874;SDS011;44652;49.040;12.126;2023-03-15T15:00:40;7.35;;;1.50;;
58874;SDS011;44652;49.040;12.126;2023-03-15T15:03:15;5.22;;;1.20;;
58874;SDS011;44652;49.040;12.126;2023-03-15T15:05:42;5.05;;;1.30;;
58874;SDS011;44652;49.040;12.126;2023-03-15T15:08:10;4.03;;;1.27;;
58874;SDS011;44652;49.040;12.126;2023-03-15T15:10:41;4.25;;;1.48;;
58874;SDS011;44652;49.040;12.126;2023-03-15T15:13:10;5.38;;;1.30;;
58874;SDS011;44652;49.040;12.126;2023-03-15T15:15:39;3.38;;;1.23;;
58874;SDS011;44652;49.040;12.126;2023-03-15T15:18:21;5.55;;;1.25;;
58874;SDS011;44652;49.040;12.126;2023-03-15T15:20:48;3.13;;;1.10;;
58874;SDS011;44652;49.040;12.126;2023-03-15T15:25:43;4.50;;;1.25;;
58874;SDS011;44652;49.040;12.126;2023-03-15T15:28:12;5.65;;;1.55;;
58874;SDS011;44652;49.040;12.126;2023-03-15T15:30:59;6.93;;;1.55;;
58874;SDS011;44652;49.040;12.126;2023-03-15T15:33:25;4.00;;;1.60;;
58874;SDS011;44652;49.040;12.126;2023-03-15T15:35:53;5.03;;;1.75;;
58874;SDS011;44652;49.040;12.126;2023-03-15T15:38:24;3.88;;;1.27;;
58874;SDS011;44652;49.040;12.126;2023-03-15T15:40:51;5.28;;;1.20;;
58874;SDS011;44652;49.040;12.126;2023-03-15T15:43:18;5.78;;;1.23;;
58874;SDS011;44652;49.040;12.126;2023-03-15T15:45:45;4.28;;;1.10;;
58874;SDS011;44652;49.040;12.126;2023-03-15T15:48:11;2.90;;;1.15;;
58874;SDS011;44652;49.040;12.126;2023-03-15T15:50:38;3.67;;;1.42;;
58874;SDS011;44652;49.040;12.126;2023-03-15T15:53:05;4.05;;;1.15;;
58874;SDS011;44652;49.040;12.126;2023-03-15T15:55:32;4.65;;;1.13;;
58874;SDS011;44652;49.040;12.126;2023-03-15T15:58:00;3.47;;;1.00;;
58874;SDS011;44652;49.040;12.126;2023-03-15T16:00:27;4.82;;;1.10;;
58874;SDS011;44652;49.040;12.126;2023-03-15T16:02:54;4.63;;;1.30;;
58874;SDS011;44652;49.040;12.126;2023-03-15T16:05:22;5.20;;;1.08;;
58874;SDS011;44652;49.040;12.126;2023-03-15T16:07:49;2.58;;;1.13;;
58874;SDS011;44652;49.040;12.126;2023-03-15T16:10:17;4.65;;;1.50;;
58874;SDS011;44652;49.040;12.126;2023-03-15T16:12:44;3.55;;;1.38;;
58874;SDS011;44652;49.040;12.126;2023-03-15T16:15:11;3.58;;;1.20;;
58874;SDS011;44652;49.040;12.126;2023-03-15T16:17:39;3.20;;;1.63;;
58874;SDS011;44652;49.040;12.126;2023-03-15T16:20:06;5.50;;;1.55;;
58874;SDS011;44652;49.040;12.126;2023-03-15T16:22:34;3.75;;;1.50;;
58874;SDS011;44652;49.040;12.126;2023-03-15T16:25:01;3.50;;;1.60;;
58874;SDS011;44652;49.040;12.126;2023-03-15T16:27:30;6.88;;;1.65;;
58874;SDS011;44652;49.040;12.126;2023-03-15T16:29:56;6.45;;;2.10;;
58874;SDS011;44652;49.040;12.126;2023-03-15T16:32:24;6.80;;;2.33;;
58874;SDS011;44652;49.040;12.126;2023-03-15T16:35:09;12.10;;;3.90;;
58874;SDS011;44652;49.040;12.126;2023-03-15T16:37:38;5.50;;;1.73;;
58874;SDS011;44652;49.040;12.126;2023-03-15T16:40:08;3.08;;;1.55;;
58874;SDS011;44652;49.040;12.126;2023-03-15T16:42:39;3.88;;;1.60;;
58874;SDS011;44652;49.040;12.126;2023-03-15T16:45:15;3.03;;;1.50;;
58874;SDS011;44652;49.040;12.126;2023-03-15T16:47:42;3.38;;;1.52;;
58874;SDS011;44652;49.040;12.126;2023-03-15T16:50:09;5.15;;;1.30;;
58874;SDS011;44652;49.040;12.126;2023-03-15T16:52:36;3.17;;;1.30;;
58874;SDS011;44652;49.040;12.126;2023-03-15T16:55:03;3.28;;;1.48;;
58874;SDS011;44652;49.040;12.126;2023-03-15T16:57:30;3.28;;;1.67;;
58874;SDS011;44652;49.040;12.126;2023-03-15T16:59:56;6.97;;;2.10;;
58874;SDS011;44652;49.040;12.126;2023-03-15T17:02:24;3.88;;;1.75;;
58874;SDS011;44652;49.040;12.126;2023-03-15T17:04:51;4.55;;;1.80;;
58874;SDS011;44652;49.040;12.126;2023-03-15T17:07:33;4.60;;;1.80;;
58874;SDS011;44652;49.040;12.126;2023-03-15T17:10:04;3.70;;;1.92;;
58874;SDS011;44652;49.040;12.126;2023-03-15T17:12:32;5.18;;;2.10;;
58874;SDS011;44652;49.040;12.126;2023-03-15T17:14:59;3.47;;;1.92;;
58874;SDS011;44652;49.040;12.126;2023-03-15T17:17:26;5.97;;;2.70;;
58874;SDS011;44652;49.040;12.126;2023-03-15T17:19:53;4.13;;;2.08;;
58874;SDS011;44652;49.040;12.126;2023-03-15T17:22:19;5.75;;;1.95;;
58874;SDS011;44652;49.040;12.126;2023-03-15T17:24:46;5.55;;;2.10;;
58874;SDS011;44652;49.040;12.126;2023-03-15T17:27:32;3.78;;;2.00;;
58874;SDS011;44652;49.040;12.126;2023-03-15T17:30:00;4.25;;;2.10;;
58874;SDS011;44652;49.040;12.126;2023-03-15T17:32:27;5.55;;;2.40;;
58874;SDS011;44652;49.040;12.126;2023-03-15T17:34:54;4.90;;;2.30;;
58874;SDS011;44652;49.040;12.126;2023-03-15T17:37:24;7.40;;;2.53;;
58874;SDS011;44652;49.040;12.126;2023-03-15T17:39:51;4.97;;;2.53;;
58874;SDS011;44652;49.040;12.126;2023-03-15T17:42:17;5.82;;;2.95;;
58874;SDS011;44652;49.040;12.126;2023-03-15T17:44:44;4.93;;;2.70;;
58874;SDS011;44652;49.040;12.126;2023-03-15T17:47:11;6.13;;;2.50;;
58874;SDS011;44652;49.040;12.126;2023-03-15T17:49:38;4.65;;;2.10;;
58874;SDS011;44652;49.040;12.126;2023-03-15T17:52:08;5.00;;;2.72;;
58874;SDS011;44652;49.040;12.126;2023-03-15T17:54:35;7.03;;;3.65;;
58874;SDS011;44652;49.040;12.126;2023-03-15T17:57:02;10.18;;;4.03;;
58874;SDS011;44652;49.040;12.126;2023-03-15T17:59:29;8.23;;;3.70;;
58874;SDS011;44652;49.040;12.126;2023-03-15T18:01:55;6.10;;;3.00;;
58874;SDS011;44652;49.040;12.126;2023-03-15T18:04:21;6.78;;;2.97;;
58874;SDS011;44652;49.040;12.126;2023-03-15T18:06:48;4.90;;;2.83;;
58874;SDS011;44652;49.040;12.126;2023-03-15T18:09:15;5.60;;;2.60;;
58874;SDS011;44652;49.040;12.126;2023-03-15T18:11:41;6.18;;;2.70;;
58874;SDS011;44652;49.040;12.126;2023-03-15T18:14:10;6.40;;;2.75;;
58874;SDS011;44652;49.040;12.126;2023-03-15T18:16:36;8.20;;;3.63;;
58874;SDS011;44652;49.040;12.126;2023-03-15T18:19:03;6.35;;;3.63;;
58874;SDS011;44652;49.040;12.126;2023-03-15T18:21:29;5.65;;;3.35;;
58874;SDS011;44652;49.040;12.126;2023-03-15T18:23:56;6.97;;;3.95;;
58874;SDS011;44652;49.040;12.126;2023-03-15T18:26:23;7.78;;;4.15;;
58874;SDS011;44652;49.040;12.126;2023-03-15T18:28:49;7.80;;;4.20;;
58874;SDS011;44652;49.040;12.126;2023-03-15T18:31:18;7.28;;;3.90;;
58874;SDS011;44652;49.040;12.126;2023-03-15T18:36:11;8.88;;;4.13;;
58874;SDS011;44652;49.040;12.126;2023-03-15T18:38:38;6.47;;;3.75;;
58874;SDS011;44652;49.040;12.126;2023-03-15T18:41:10;6.72;;;3.28;;
58874;SDS011;44652;49.040;12.126;2023-03-15T18:43:37;12.60;;;6.18;;
58874;SDS011;44652;49.040;12.126;2023-03-15T18:46:03;5.85;;;3.55;;
58874;SDS011;44652;49.040;12.126;2023-03-15T18:48:30;11.93;;;7.38;;
58874;SDS011;44652;49.040;12.126;2023-03-15T18:51:08;7.65;;;4.75;;
58874;SDS011;44652;49.040;12.126;2023-03-15T18:53:34;6.47;;;4.18;;
58874;SDS011;44652;49.040;12.126;2023-03-15T18:56:01;7.68;;;4.60;;
58874;SDS011;44652;49.040;12.126;2023-03-15T18:58:27;5.75;;;3.40;;
58874;SDS011;44652;49.040;12.126;2023-03-15T19:00:54;9.32;;;3.28;;
58874;SDS011;44652;49.040;12.126;2023-03-15T19:03:20;7.22;;;3.60;;
58874;SDS011;44652;49.040;12.126;2023-03-15T19:05:47;7.60;;;3.90;;
58874;SDS011;44652;49.040;12.126;2023-03-15T19:08:13;8.63;;;4.13;;
58874;SDS011;44652;49.040;12.126;2023-03-15T19:10:40;8.30;;;4.03;;
58874;SDS011;44652;49.040;12.126;2023-03-15T19:13:07;7.03;;;4.10;;
58874;SDS011;44652;49.040;12.126;2023-03-15T19:15:34;7.00;;;4.53;;
58874;SDS011;44652;49.040;12.126;2023-03-15T19:18:00;6.85;;;3.65;;
58874;SDS011;44652;49.040;12.126;2023-03-15T19:20:27;6.20;;;3.60;;
58874;SDS011;44652;49.040;12.126;2023-03-15T19:22:54;6.30;;;3.55;;
58874;SDS011;44652;49.040;12.126;2023-03-15T19:25:20;7.25;;;3.95;;
58874;SDS011;44652;49.040;12.126;2023-03-15T19:27:47;8.27;;;4.22;;
58874;SDS011;44652;49.040;12.126;2023-03-15T19:30:14;6.25;;;3.65;;
58874;SDS011;44652;49.040;12.126;2023-03-15T19:32:43;7.53;;;4.35;;
58874;SDS011;44652;49.040;12.126;2023-03-15T19:35:12;8.32;;;4.80;;
58874;SDS011;44652;49.040;12.126;2023-03-15T19:37:38;7.53;;;4.60;;
58874;SDS011;44652;49.040;12.126;2023-03-15T19:40:06;9.82;;;6.10;;
58874;SDS011;44652;49.040;12.126;2023-03-15T19:42:34;11.48;;;6.38;;
58874;SDS011;44652;49.040;12.126;2023-03-15T19:45:01;10.13;;;5.90;;
58874;SDS011;44652;49.040;12.126;2023-03-15T19:47:28;9.57;;;5.43;;
58874;SDS011;44652;49.040;12.126;2023-03-15T19:49:54;10.32;;;5.18;;
58874;SDS011;44652;49.040;12.126;2023-03-15T19:52:21;9.07;;;5.40;;
58874;SDS011;44652;49.040;12.126;2023-03-15T19:54:47;9.70;;;5.70;;
58874;SDS011;44652;49.040;12.126;2023-03-15T19:57:15;8.82;;;4.90;;
58874;SDS011;44652;49.040;12.126;2023-03-15T19:59:41;10.93;;;5.10;;
58874;SDS011;44652;49.040;12.126;2023-03-15T20:02:11;11.23;;;5.15;;
58874;SDS011;44652;49.040;12.126;2023-03-15T20:04:39;9.50;;;5.25;;
58874;SDS011;44652;49.040;12.126;2023-03-15T20:07:05;10.80;;;5.20;;
58874;SDS011;44652;49.040;12.126;2023-03-15T20:09:32;9.38;;;5.47;;
58874;SDS011;44652;49.040;12.126;2023-03-15T20:12:08;8.95;;;5.38;;
58874;SDS011;44652;49.040;12.126;2023-03-15T20:14:35;9.85;;;5.80;;
58874;SDS011;44652;49.040;12.126;2023-03-15T20:17:01;9.60;;;5.13;;
58874;SDS011;44652;49.040;12.126;2023-03-15T20:19:29;6.57;;;4.32;;
58874;SDS011;44652;49.040;12.126;2023-03-15T20:21:55;6.25;;;4.20;;
58874;SDS011;44652;49.040;12.126;2023-03-15T20:24:23;7.70;;;4.30;;
58874;SDS011;44652;49.040;12.126;2023-03-15T20:26:50;6.75;;;4.25;;
58874;SDS011;44652;49.040;12.126;2023-03-15T20:29:17;7.50;;;4.50;;
58874;SDS011;44652;49.040;12.126;2023-03-15T20:31:43;7.43;;;4.43;;
58874;SDS011;44652;49.040;12.126;2023-03-15T20:34:10;6.75;;;4.38;;
58874;SDS011;44652;49.040;12.126;2023-03-15T20:36:37;8.25;;;5.28;;
58874;SDS011;44652;49.040;12.126;2023-03-15T20:39:04;8.68;;;5.30;;
58874;SDS011;44652;49.040;12.126;2023-03-15T20:41:30;7.53;;;5.32;;
58874;SDS011;44652;49.040;12.126;2023-03-15T20:43:58;9.63;;;5.70;;
58874;SDS011;44652;49.040;12.126;2023-03-15T20:46:26;8.90;;;5.07;;
58874;SDS011;44652;49.040;12.126;2023-03-15T20:48:53;7.57;;;4.40;;
58874;SDS011;44652;49.040;12.126;2023-03-15T20:51:19;7.93;;;4.90;;
58874;SDS011;44652;49.040;12.126;2023-03-15T20:53:46;7.43;;;5.38;;
58874;SDS011;44652;49.040;12.126;2023-03-15T20:56:13;7.00;;;4.95;;
58874;SDS011;44652;49.040;12.126;2023-03-15T20:58:39;8.50;;;5.35;;
58874;SDS011;44652;49.040;12.126;2023-03-15T21:01:08;8.77;;;5.03;;
58874;SDS011;44652;49.040;12.126;2023-03-15T21:03:35;7.93;;;5.60;;
58874;SDS011;44652;49.040;12.126;2023-03-15T21:06:02;8.25;;;5.80;;
58874;SDS011;44652;49.040;12.126;2023-03-15T21:08:29;8.88;;;5.65;;
58874;SDS011;44652;49.040;12.126;2023-03-15T21:10:56;8.85;;;6.10;;
58874;SDS011;44652;49.040;12.126;2023-03-15T21:13:22;8.95;;;6.18;;
58874;SDS011;44652;49.040;12.126;2023-03-15T21:15:52;9.93;;;6.35;;
58874;SDS011;44652;49.040;12.126;2023-03-15T21:18:20;12.70;;;6.82;;
58874;SDS011;44652;49.040;12.126;2023-03-15T21:20:56;8.40;;;6.05;;
58874;SDS011;44652;49.040;12.126;2023-03-15T21:23:24;8.55;;;5.43;;
58874;SDS011;44652;49.040;12.126;2023-03-15T21:25:53;9.73;;;6.47;;
58874;SDS011;44652;49.040;12.126;2023-03-15T21:28:21;12.60;;;10.10;;
58874;SDS011;44652;49.040;12.126;2023-03-15T21:30:51;13.63;;;9.93;;
58874;SDS011;44652;49.040;12.126;2023-03-15T21:33:18;16.17;;;9.25;;
58874;SDS011;44652;49.040;12.126;2023-03-15T21:35:45;12.38;;;8.40;;
58874;SDS011;44652;49.040;12.126;2023-03-15T21:38:11;13.88;;;9.27;;
58874;SDS011;44652;49.040;12.126;2023-03-15T21:40:38;13.52;;;9.75;;
58874;SDS011;44652;49.040;12.126;2023-03-15T21:43:05;17.48;;;11.68;;
58874;SDS011;44652;49.040;12.126;2023-03-15T21:45:31;19.02;;;13.32;;
58874;SDS011;44652;49.040;12.126;2023-03-15T21:47:58;21.00;;;14.50;;
58874;SDS011;44652;49.040;12.126;2023-03-15T21:50:25;21.10;;;14.50;;
58874;SDS011;44652;49.040;12.126;2023-03-15T21:52:52;16.55;;;12.18;;
58874;SDS011;44652;49.040;12.126;2023-03-15T21:55:19;12.15;;;8.50;;
58874;SDS011;44652;49.040;12.126;2023-03-15T21:57:45;9.63;;;7.00;;
58874;SDS011;44652;49.040;12.126;2023-03-15T22:00:12;9.82;;;7.07;;
58874;SDS011;44652;49.040;12.126;2023-03-15T22:02:43;10.18;;;7.50;;
58874;SDS011;44652;49.040;12.126;2023-03-15T22:05:10;10.35;;;7.90;;
58874;SDS011;44652;49.040;12.126;2023-03-15T22:07:39;12.63;;;8.93;;
58874;SDS011;44652;49.040;12.126;2023-03-15T22:10:06;12.70;;;8.93;;
58874;SDS011;44652;49.040;12.126;2023-03-15T22:12:37;13.25;;;9.10;;
58874;SDS011;44652;49.040;12.126;2023-03-15T22:15:04;12.00;;;9.35;;
